createdAt,value
2018-02-15T00:01:02.048Z,1002.64
2018-02-15T00:02:12.086Z,1002.65
2018-02-15T00:03:22.140Z,1002.7
2018-02-15T00:04:32.178Z,1002.72
2018-02-15T00:05:41.706Z,1002.7
2018-02-15T00:06:51.747Z,1002.67
2018-02-15T00:08:01.782Z,1002.69
2018-02-15T00:09:11.846Z,1002.73
2018-02-15T00:10:21.904Z,1002.71
2018-02-15T00:11:31.681Z,1002.7
2018-02-15T00:12:42.101Z,1002.68
2018-02-15T00:13:52.163Z,1002.67
2018-02-15T00:15:01.950Z,1002.62
2018-02-15T00:16:11.736Z,1002.67
2018-02-15T00:17:21.788Z,1002.68
2018-02-15T00:18:31.875Z,1002.66
2018-02-15T00:19:41.923Z,1002.62
2018-02-15T00:20:51.710Z,1002.63
2018-02-15T00:22:01.746Z,1002.68
2018-02-15T00:23:11.794Z,1002.65
2018-02-15T00:24:21.849Z,1002.67
2018-02-15T00:25:31.902Z,1002.66
2018-02-15T00:26:41.927Z,1002.65
2018-02-15T00:27:51.954Z,1002.62
2018-02-15T00:29:01.753Z,1002.65
2018-02-15T00:30:11.539Z,1002.62
2018-02-15T00:31:21.060Z,1002.61
2018-02-15T00:32:30.844Z,1002.61
2018-02-15T00:33:40.885Z,1002.61
2018-02-15T00:34:50.922Z,1002.65
2018-02-15T00:36:00.961Z,1002.59
2018-02-15T00:37:11.003Z,1002.61
2018-02-15T00:38:21.042Z,1002.64
2018-02-15T00:39:30.827Z,1002.63
2018-02-15T00:40:40.879Z,1002.65
2018-02-15T00:41:50.676Z,1002.66
2018-02-15T00:43:00.736Z,1002.62
2018-02-15T00:44:10.510Z,1002.6
2018-02-15T00:45:20.561Z,1002.61
2018-02-15T00:46:30.613Z,1002.6
2018-02-15T00:47:40.648Z,1002.62
2018-02-15T00:48:50.693Z,1002.58
2018-02-15T00:50:00.739Z,1002.59
2018-02-15T00:51:10.535Z,1002.64
2018-02-15T00:52:20.591Z,1002.61
2018-02-15T00:53:30.658Z,1002.65
2018-02-15T00:54:40.437Z,1002.64
2018-02-15T00:55:50.496Z,1002.6
2018-02-15T00:57:00.529Z,1002.6
2018-02-15T00:58:10.580Z,1002.62
2018-02-15T00:59:20.630Z,1002.57
2018-02-15T01:00:30.415Z,1002.57
2018-02-15T01:01:41.215Z,1002.57
2018-02-15T01:02:51.268Z,1002.61
2018-02-15T01:04:01.291Z,1002.62
2018-02-15T01:05:11.333Z,1002.67
2018-02-15T01:06:21.382Z,1002.65
2018-02-15T01:07:31.171Z,1002.66
2018-02-15T01:08:40.955Z,1002.65
2018-02-15T01:09:50.990Z,1002.67
2018-02-15T01:11:01.056Z,1002.69
2018-02-15T01:12:10.846Z,1002.78
2018-02-15T01:13:20.903Z,1002.79
2018-02-15T01:14:32.037Z,1002.75
2018-02-15T01:15:42.139Z,1002.76
2018-02-15T01:16:51.919Z,1002.8
2018-02-15T01:18:01.706Z,1002.77
2018-02-15T01:19:11.795Z,1002.81
2018-02-15T01:20:21.833Z,1002.8
2018-02-15T01:21:31.891Z,1002.83
2018-02-15T01:22:41.931Z,1002.85
2018-02-15T01:23:51.715Z,1002.85
2018-02-15T01:25:01.830Z,1002.91
2018-02-15T01:26:11.869Z,1002.89
2018-02-15T01:27:21.660Z,1002.88
2018-02-15T01:28:32.486Z,1002.9
2018-02-15T01:29:42.509Z,1002.91
2018-02-15T01:30:52.549Z,1002.9
2018-02-15T01:32:02.339Z,1002.85
2018-02-15T01:33:12.375Z,1002.88
2018-02-15T01:34:22.170Z,1002.9
2018-02-15T01:35:31.952Z,1002.89
2018-02-15T01:36:42.008Z,1002.87
2018-02-15T01:37:51.808Z,1002.86
2018-02-15T01:39:01.861Z,1002.87
2018-02-15T01:40:11.913Z,1002.86
2018-02-15T01:41:21.951Z,1002.82
2018-02-15T01:42:31.741Z,1002.86
2018-02-15T01:43:41.785Z,1002.83
2018-02-15T01:44:51.842Z,1002.79
2018-02-15T01:46:01.631Z,1002.78
2018-02-15T01:47:11.677Z,1002.73
2018-02-15T01:48:21.452Z,1002.68
2018-02-15T01:49:31.524Z,1002.7
2018-02-15T01:50:41.308Z,1002.67
2018-02-15T01:51:51.336Z,1002.64
2018-02-15T01:53:01.395Z,1002.65
2018-02-15T01:54:11.426Z,1002.68
2018-02-15T01:55:21.216Z,1002.62
2018-02-15T01:56:31.277Z,1002.64
2018-02-15T01:57:41.311Z,1002.62
2018-02-15T01:58:51.355Z,1002.63
2018-02-15T02:00:01.413Z,1002.65
2018-02-15T02:01:11.201Z,1002.7
2018-02-15T02:02:20.974Z,1002.72
2018-02-15T02:03:31.020Z,1002.67
2018-02-15T02:04:40.835Z,1002.68
2018-02-15T02:05:50.663Z,1002.72
2018-02-15T02:07:00.444Z,1002.68
2018-02-15T02:08:09.972Z,1002.73
2018-02-15T02:09:19.751Z,1002.72
2018-02-15T02:10:29.546Z,1002.78
2018-02-15T02:11:39.599Z,1002.74
2018-02-15T02:12:49.385Z,1002.75
2018-02-15T02:13:59.424Z,1002.69
2018-02-15T02:15:09.467Z,1002.68
2018-02-15T02:16:19.510Z,1002.67
2018-02-15T02:17:29.537Z,1002.65
2018-02-15T02:18:39.313Z,1002.68
2018-02-15T02:19:49.099Z,1002.69
2018-02-15T02:20:59.146Z,1002.69
2018-02-15T02:22:09.179Z,1002.73
2018-02-15T02:23:19.230Z,1002.66
2018-02-15T02:24:29.018Z,1002.75
2018-02-15T02:25:39.574Z,1002.68
2018-02-15T02:26:49.341Z,1002.73
2018-02-15T02:27:59.406Z,1002.74
2018-02-15T02:29:09.448Z,1002.74
2018-02-15T02:30:19.236Z,1002.69
2018-02-15T02:31:29.306Z,1002.76
2018-02-15T02:32:39.369Z,1002.75
2018-02-15T02:33:49.419Z,1002.77
2018-02-15T02:34:59.476Z,1002.78
2018-02-15T02:36:09.520Z,1002.8
2018-02-15T02:37:19.575Z,1002.87
2018-02-15T02:38:29.621Z,1002.86
2018-02-15T02:39:39.676Z,1002.85
2018-02-15T02:40:49.729Z,1002.87
2018-02-15T02:41:59.772Z,1002.81
2018-02-15T02:43:09.818Z,1002.89
2018-02-15T02:44:19.850Z,1002.89
2018-02-15T02:45:29.636Z,1002.87
2018-02-15T02:46:39.711Z,1002.86
2018-02-15T02:47:49.516Z,1002.91
2018-02-15T02:48:59.558Z,1002.89
2018-02-15T02:50:09.614Z,1002.92
2018-02-15T02:51:19.672Z,1002.91
2018-02-15T02:52:29.509Z,1002.97
2018-02-15T02:53:39.569Z,1003.01
2018-02-15T02:54:49.617Z,1002.9
2018-02-15T02:55:59.665Z,1002.89
2018-02-15T02:57:09.705Z,1002.92
2018-02-15T02:58:19.757Z,1002.91
2018-02-15T02:59:29.288Z,1002.89
2018-02-15T03:00:39.080Z,1002.94
2018-02-15T03:01:49.149Z,1002.99
2018-02-15T03:02:59.223Z,1002.98
2018-02-15T03:04:09.000Z,1003.03
2018-02-15T03:35:52.628Z,1003.07
2018-02-15T03:37:02.659Z,1003.05
2018-02-15T03:38:12.724Z,1003.08
2018-02-15T03:39:22.764Z,1003.04
2018-02-15T03:40:32.555Z,1003.08
2018-02-15T03:41:42.643Z,1003.08
2018-02-15T03:42:52.691Z,1003.1
2018-02-15T03:44:02.475Z,1003.11
2018-02-15T03:45:12.262Z,1003.07
2018-02-15T03:46:22.314Z,1003.11
2018-02-15T03:47:32.096Z,1003.13
2018-02-15T03:48:41.883Z,1003.09
2018-02-15T03:49:51.672Z,1003.16
2018-02-15T03:51:01.715Z,1003.13
2018-02-15T03:52:11.486Z,1003.17
2018-02-15T03:53:21.316Z,1003.11
2018-02-15T03:54:31.100Z,1003.13
2018-02-15T03:55:41.135Z,1003.2
2018-02-15T03:56:51.189Z,1003.18
2018-02-15T03:58:00.976Z,1003.21
2018-02-15T03:59:11.028Z,1003.23
2018-02-15T04:00:20.544Z,1003.2
2018-02-15T04:01:30.577Z,1003.19
2018-02-15T04:02:40.366Z,1003.21
2018-02-15T04:03:50.396Z,1003.19
2018-02-15T04:05:00.467Z,1003.21
2018-02-15T04:06:10.563Z,1003.23
2018-02-15T04:07:20.345Z,1003.24
2018-02-15T04:08:30.374Z,1003.27
2018-02-15T04:09:40.409Z,1003.23
2018-02-15T04:10:50.445Z,1003.21
2018-02-15T04:12:00.499Z,1003.29
2018-02-15T04:13:10.289Z,1003.3
2018-02-15T04:14:20.066Z,1003.34
2018-02-15T04:15:30.095Z,1003.29
2018-02-15T04:16:40.181Z,1003.32
2018-02-15T04:17:49.987Z,1003.29
2018-02-15T04:19:00.038Z,1003.34
2018-02-15T04:20:10.090Z,1003.36
2018-02-15T04:21:19.859Z,1003.38
2018-02-15T04:22:29.634Z,1003.38
2018-02-15T04:23:39.672Z,1003.37
2018-02-15T04:24:49.702Z,1003.35
2018-02-15T04:25:59.488Z,1003.37
2018-02-15T04:27:09.532Z,1003.36
2018-02-15T04:28:19.583Z,1003.35
2018-02-15T04:29:29.630Z,1003.35
2018-02-15T04:30:39.678Z,1003.42
2018-02-15T04:31:49.718Z,1003.37
2018-02-15T04:32:59.757Z,1003.35
2018-02-15T04:34:09.801Z,1003.39
2018-02-15T04:35:19.844Z,1003.39
2018-02-15T04:36:29.635Z,1003.38
2018-02-15T04:37:39.961Z,1003.42
2018-02-15T04:38:50.003Z,1003.43
2018-02-15T04:39:59.770Z,1003.45
2018-02-15T04:41:09.544Z,1003.44
2018-02-15T04:42:19.334Z,1003.46
2018-02-15T04:43:29.125Z,1003.48
2018-02-15T04:44:39.163Z,1003.5
2018-02-15T04:45:49.215Z,1003.46
2018-02-15T04:46:59.260Z,1003.52
2018-02-15T04:48:09.067Z,1003.55
2018-02-15T04:49:19.116Z,1003.58
2018-02-15T04:50:28.932Z,1003.56
2018-02-15T04:51:38.974Z,1003.59
2018-02-15T04:52:48.745Z,1003.55
2018-02-15T04:53:58.804Z,1003.59
2018-02-15T04:55:08.329Z,1003.59
2018-02-15T04:56:18.129Z,1003.64
2018-02-15T04:57:27.930Z,1003.64
2018-02-15T04:58:37.972Z,1003.63
2018-02-15T04:59:48.025Z,1003.58
2018-02-15T05:00:57.795Z,1003.6
2018-02-15T05:02:07.840Z,1003.64
2018-02-15T05:03:17.671Z,1003.65
2018-02-15T05:04:27.466Z,1003.64
2018-02-15T05:05:37.509Z,1003.62
2018-02-15T05:06:47.568Z,1003.61
2018-02-15T05:07:57.613Z,1003.63
2018-02-15T05:09:07.660Z,1003.61
2018-02-15T05:10:17.720Z,1003.59
2018-02-15T05:11:27.754Z,1003.64
2018-02-15T05:12:37.813Z,1003.61
2018-02-15T05:13:47.890Z,1003.66
2018-02-15T05:14:58.047Z,1003.68
2018-02-15T05:16:07.839Z,1003.66
2018-02-15T05:17:17.628Z,1003.67
2018-02-15T05:18:27.670Z,1003.73
2018-02-15T05:19:37.449Z,1003.69
2018-02-15T05:20:47.506Z,1003.75
2018-02-15T05:21:57.548Z,1003.72
2018-02-15T05:23:07.071Z,1003.72
2018-02-15T05:24:17.114Z,1003.73
2018-02-15T05:25:26.893Z,1003.71
2018-02-15T05:26:36.695Z,1003.75
2018-02-15T05:27:46.473Z,1003.78
2018-02-15T05:28:56.518Z,1003.78
2018-02-15T05:30:06.572Z,1003.83
2018-02-15T05:31:16.627Z,1003.84
2018-02-15T05:32:26.664Z,1003.8
2018-02-15T05:33:36.450Z,1003.77
2018-02-15T05:34:46.505Z,1003.79
2018-02-15T05:35:56.555Z,1003.8
2018-02-15T05:37:06.329Z,1003.79
2018-02-15T05:38:16.363Z,1003.81
2018-02-15T05:39:26.143Z,1003.8
2018-02-15T05:40:36.192Z,1003.82
2018-02-15T05:41:46.238Z,1003.82
2018-02-15T05:42:56.307Z,1003.77
2018-02-15T05:44:06.351Z,1003.81
2018-02-15T05:45:16.388Z,1003.81
2018-02-15T05:46:28.197Z,1003.78
2018-02-15T05:47:38.232Z,1003.78
2018-02-15T05:48:48.280Z,1003.78
2018-02-15T05:49:58.326Z,1003.81
2018-02-15T05:51:08.372Z,1003.77
2018-02-15T05:52:18.145Z,1003.77
2018-02-15T05:53:28.191Z,1003.74
2018-02-15T05:54:38.237Z,1003.79
2018-02-15T05:55:48.030Z,1003.77
2018-02-15T05:56:58.067Z,1003.81
2018-02-15T05:58:07.843Z,1003.84
2018-02-15T05:59:17.895Z,1003.85
2018-02-15T06:00:27.681Z,1003.81
2018-02-15T06:01:37.750Z,1003.86
2018-02-15T06:02:47.601Z,1003.88
2018-02-15T06:03:57.637Z,1003.91
2018-02-15T06:05:07.749Z,1003.95
2018-02-15T06:06:17.520Z,1003.91
2018-02-15T06:07:27.300Z,1003.99
2018-02-15T06:08:37.362Z,1003.98
2018-02-15T06:09:47.416Z,1004.01
2018-02-15T06:10:57.494Z,1004.06
2018-02-15T06:12:07.554Z,1004.04
2018-02-15T06:13:17.388Z,1004.05
2018-02-15T06:14:27.442Z,1004.02
2018-02-15T06:15:37.229Z,1004
2018-02-15T06:16:47.018Z,1004.05
2018-02-15T06:17:57.069Z,1004.03
2018-02-15T06:19:06.854Z,1004.01
2018-02-15T06:20:16.636Z,1004.04
2018-02-15T06:21:26.681Z,1004.06
2018-02-15T06:22:36.728Z,1004.06
2018-02-15T06:23:46.767Z,1004.11
2018-02-15T06:24:56.804Z,1004.11
2018-02-15T06:26:06.844Z,1004.12
2018-02-15T06:27:16.622Z,1004.19
2018-02-15T06:28:26.679Z,1004.16
2018-02-15T06:29:36.732Z,1004.2
2018-02-15T06:30:46.512Z,1004.21
2018-02-15T06:31:56.556Z,1004.19
2018-02-15T06:33:06.600Z,1004.21
2018-02-15T06:34:16.647Z,1004.24
2018-02-15T06:35:26.740Z,1004.29
2018-02-15T06:36:36.851Z,1004.29
2018-02-15T06:37:46.891Z,1004.3
2018-02-15T06:38:56.411Z,1004.31
2018-02-15T06:40:06.201Z,1004.37
2018-02-15T06:41:16.247Z,1004.37
2018-02-15T06:42:26.306Z,1004.43
2018-02-15T06:43:36.075Z,1004.37
2018-02-15T06:44:46.124Z,1004.4
2018-02-15T06:45:56.187Z,1004.43
2018-02-15T06:47:06.231Z,1004.4
2018-02-15T06:48:16.013Z,1004.39
2018-02-15T06:49:26.055Z,1004.37
2018-02-15T06:50:35.834Z,1004.37
2018-02-15T06:51:45.894Z,1004.4
2018-02-15T06:52:55.689Z,1004.38
2018-02-15T06:54:05.778Z,1004.36
2018-02-15T06:55:15.840Z,1004.38
2018-02-15T06:56:25.899Z,1004.4
2018-02-15T06:57:35.950Z,1004.37
2018-02-15T06:58:46.007Z,1004.36
2018-02-15T06:59:55.787Z,1004.4
2018-02-15T07:01:05.879Z,1004.42
2018-02-15T07:02:15.419Z,1004.44
2018-02-15T07:03:25.201Z,1004.44
2018-02-15T07:04:35.245Z,1004.47
2018-02-15T07:05:45.351Z,1004.39
2018-02-15T07:06:55.392Z,1004.39
2018-02-15T07:08:05.449Z,1004.44
2018-02-15T07:09:15.244Z,1004.38
2018-02-15T07:10:25.036Z,1004.38
2018-02-15T07:11:35.079Z,1004.4
2018-02-15T07:12:45.139Z,1004.39
2018-02-15T07:13:55.181Z,1004.3
2018-02-15T07:15:05.217Z,1004.3
2018-02-15T07:16:15.381Z,1004.31
2018-02-15T07:17:25.235Z,1004.32
2018-02-15T07:18:35.008Z,1004.31
2018-02-15T07:19:44.796Z,1004.23
2018-02-15T07:20:54.842Z,1004.28
2018-02-15T07:22:04.895Z,1004.24
2018-02-15T07:23:14.936Z,1004.21
2018-02-15T07:24:25.002Z,1004.23
2018-02-15T07:25:35.063Z,1004.21
2018-02-15T07:26:45.152Z,1004.23
2018-02-15T07:27:55.187Z,1004.27
2018-02-15T07:29:04.976Z,1004.23
2018-02-15T07:30:15.022Z,1004.29
2018-02-15T07:31:25.079Z,1004.28
2018-02-15T07:32:35.128Z,1004.3
2018-02-15T07:33:45.193Z,1004.28
2018-02-15T07:34:54.991Z,1004.24
2018-02-15T07:36:05.048Z,1004.28
2018-02-15T07:37:15.088Z,1004.27
2018-02-15T07:38:25.147Z,1004.29
2018-02-15T07:39:35.195Z,1004.26
2018-02-15T07:40:45.239Z,1004.28
2018-02-15T07:41:55.048Z,1004.33
2018-02-15T07:43:05.101Z,1004.28
2018-02-15T07:44:15.162Z,1004.28
2018-02-15T07:45:25.231Z,1004.28
2018-02-15T07:46:34.819Z,1004.28
2018-02-15T07:47:44.876Z,1004.34
2018-02-15T07:48:54.660Z,1004.38
2018-02-15T07:50:04.454Z,1004.39
2018-02-15T07:51:14.497Z,1004.47
2018-02-15T07:52:25.791Z,1004.49
2018-02-15T07:53:35.567Z,1004.52
2018-02-15T07:54:45.615Z,1004.59
2018-02-15T07:55:55.661Z,1004.62
2018-02-15T07:57:05.705Z,1004.62
2018-02-15T07:58:15.748Z,1004.65
2018-02-15T07:59:25.790Z,1004.67
2018-02-15T08:00:35.852Z,1004.7
2018-02-15T08:01:45.638Z,1004.71
2018-02-15T08:02:55.681Z,1004.67
2018-02-15T08:04:05.729Z,1004.64
2018-02-15T08:05:15.787Z,1004.68
2018-02-15T08:06:25.572Z,1004.7
2018-02-15T08:07:35.367Z,1004.72
2018-02-15T08:08:45.425Z,1004.7
2018-02-15T08:09:54.953Z,1004.71
2018-02-15T08:11:05.018Z,1004.69
2018-02-15T08:12:14.539Z,1004.75
2018-02-15T08:13:24.631Z,1004.7
2018-02-15T08:14:34.699Z,1004.74
2018-02-15T08:15:44.749Z,1004.76
2018-02-15T08:16:54.814Z,1004.76
2018-02-15T08:18:04.858Z,1004.86
2018-02-15T08:19:14.892Z,1004.86
2018-02-15T08:20:24.950Z,1004.87
2018-02-15T08:21:35.066Z,1004.9
2018-02-15T08:22:45.125Z,1004.9
2018-02-15T08:23:54.933Z,1004.87
2018-02-15T08:25:04.723Z,1004.93
2018-02-15T08:26:14.790Z,1004.87
2018-02-15T08:27:24.833Z,1004.86
2018-02-15T08:28:34.886Z,1004.85
2018-02-15T08:29:44.692Z,1004.9
2018-02-15T08:30:53.951Z,1004.89
2018-02-15T08:32:03.731Z,1004.88
2018-02-15T08:33:13.796Z,1004.87
2018-02-15T08:34:23.842Z,1004.85
2018-02-15T08:35:33.899Z,1004.86
2018-02-15T08:36:43.422Z,1004.91
2018-02-15T08:37:53.472Z,1004.87
2018-02-15T08:39:03.539Z,1004.91
2018-02-15T08:40:13.567Z,1004.86
2018-02-15T08:41:23.374Z,1004.85
2018-02-15T08:42:33.414Z,1004.84
2018-02-15T08:43:43.467Z,1004.85
2018-02-15T08:44:53.289Z,1004.85
2018-02-15T08:46:03.343Z,1004.89
2018-02-15T08:47:13.380Z,1004.88
2018-02-15T08:48:23.475Z,1004.97
2018-02-15T08:49:33.531Z,1004.93
2018-02-15T08:50:43.572Z,1004.97
2018-02-15T08:51:53.621Z,1004.93
2018-02-15T08:53:03.682Z,1004.93
2018-02-15T08:54:13.728Z,1004.88
2018-02-15T08:55:23.528Z,1004.89
2018-02-15T08:56:33.328Z,1004.93
2018-02-15T08:57:43.373Z,1004.89
2018-02-15T08:58:53.429Z,1004.88
2018-02-15T09:00:03.552Z,1004.95
2018-02-15T09:01:13.683Z,1005
2018-02-15T09:02:23.748Z,1005.01
2018-02-15T09:03:33.559Z,1005.05
2018-02-15T09:04:43.684Z,1005.04
2018-02-15T09:05:53.786Z,1005.07
2018-02-15T09:07:03.852Z,1005.04
2018-02-15T09:08:13.659Z,1005.04
2018-02-15T09:09:23.718Z,1005.04
2018-02-15T09:10:33.803Z,1005.06
2018-02-15T09:11:43.905Z,1005.12
2018-02-15T09:12:54.041Z,1005.1
2018-02-15T09:14:04.169Z,1005.1
2018-02-15T09:15:13.996Z,1005.13
2018-02-15T09:16:24.109Z,1005.14
2018-02-15T09:17:33.988Z,1005.21
2018-02-15T09:18:43.845Z,1005.13
2018-02-15T09:19:53.661Z,1005.19
2018-02-15T09:21:03.449Z,1005.13
2018-02-15T09:22:13.920Z,1005.19
2018-02-15T09:23:23.978Z,1005.17
2018-02-15T09:24:34.084Z,1005.13
2018-02-15T09:25:44.221Z,1005.11
2018-02-15T09:26:55.387Z,1005.07
2018-02-15T09:28:05.534Z,1005.12
2018-02-15T09:29:15.598Z,1005.03
2018-02-15T09:30:25.658Z,1005.06
2018-02-15T09:31:35.732Z,1005.03
2018-02-15T09:32:45.777Z,1005.04
2018-02-15T09:33:55.881Z,1005
2018-02-15T09:35:05.699Z,1004.99
2018-02-15T09:36:15.770Z,1005
2018-02-15T09:37:25.581Z,1005.01
2018-02-15T09:38:35.370Z,1004.94
2018-02-15T09:39:45.417Z,1004.95
2018-02-15T09:40:55.505Z,1005
2018-02-15T09:42:05.558Z,1004.99
2018-02-15T09:43:15.389Z,1005.03
2018-02-15T09:44:25.460Z,1005.04
2018-02-15T09:45:35.266Z,1005.06
2018-02-15T09:46:45.403Z,1005.08
2018-02-15T09:47:55.256Z,1005.04
2018-02-15T09:49:05.315Z,1005.03
2018-02-15T09:50:15.384Z,1005.03
2018-02-15T09:51:25.182Z,1004.99
2018-02-15T09:52:35.273Z,1005.03
2018-02-15T09:53:45.336Z,1005.05
2018-02-15T09:54:55.239Z,1004.99
2018-02-15T09:56:05.615Z,1005.02
2018-02-15T09:57:15.702Z,1005.02
2018-02-15T09:58:25.519Z,1005.02
2018-02-15T09:59:35.574Z,1005.05
2018-02-15T10:00:45.192Z,1005.03
2018-02-15T10:01:55.000Z,1005
2018-02-15T10:03:05.082Z,1005.04
2018-02-15T10:04:15.141Z,1005.05
2018-02-15T10:05:26.258Z,1005.01
2018-02-15T10:06:36.310Z,1005.02
2018-02-15T10:07:46.371Z,1005.01
2018-02-15T10:08:56.451Z,1004.96
2018-02-15T10:10:06.557Z,1004.98
2018-02-15T10:11:16.625Z,1004.96
2018-02-15T10:12:26.700Z,1004.98
2018-02-15T10:13:36.506Z,1005
2018-02-15T10:14:46.584Z,1004.95
2018-02-15T10:15:56.388Z,1004.9
2018-02-15T10:17:06.494Z,1004.95
2018-02-15T10:18:16.551Z,1004.95
2018-02-15T10:19:26.347Z,1005
2018-02-15T10:20:35.904Z,1004.96
2018-02-15T10:21:46.036Z,1004.96
2018-02-15T10:22:56.085Z,1004.94
2018-02-15T10:24:06.172Z,1004.95
2018-02-15T10:25:16.237Z,1004.97
2018-02-15T10:26:26.037Z,1004.96
2018-02-15T10:27:36.079Z,1004.93
2018-02-15T10:28:45.962Z,1004.91
2018-02-15T10:29:55.806Z,1004.92
2018-02-15T10:31:05.869Z,1004.94
2018-02-15T10:32:16.022Z,1004.91
2018-02-15T10:33:26.110Z,1004.91
2018-02-15T10:34:35.674Z,1004.91
2018-02-15T10:35:45.734Z,1004.84
2018-02-15T10:36:55.547Z,1004.87
2018-02-15T10:38:05.605Z,1004.85
2018-02-15T10:39:15.683Z,1004.82
2018-02-15T10:40:25.480Z,1004.78
2018-02-15T10:41:35.267Z,1004.79
2018-02-15T10:42:45.335Z,1004.74
2018-02-15T10:43:55.405Z,1004.72
2018-02-15T10:45:06.558Z,1004.75
2018-02-15T10:46:16.482Z,1004.73
2018-02-15T10:47:26.283Z,1004.72
2018-02-15T10:48:37.694Z,1004.71
2018-02-15T10:49:47.590Z,1004.7
2018-02-15T10:50:57.401Z,1004.68
2018-02-15T10:52:07.533Z,1004.68
2018-02-15T10:53:17.602Z,1004.65
2018-02-15T10:54:29.160Z,1004.65
2018-02-15T10:55:39.388Z,1004.64
2018-02-15T10:56:49.453Z,1004.59
2018-02-15T10:57:59.566Z,1004.59
2018-02-15T10:59:09.645Z,1004.59
2018-02-15T11:00:19.720Z,1004.57
2018-02-15T11:01:29.769Z,1004.59
2018-02-15T11:02:39.902Z,1004.57
2018-02-15T11:03:50.036Z,1004.56
2018-02-15T11:05:00.100Z,1004.56
2018-02-15T11:06:10.175Z,1004.56
2018-02-15T11:07:20.263Z,1004.56
2018-02-15T11:08:30.320Z,1004.51
2018-02-15T11:09:40.384Z,1004.53
2018-02-15T11:10:50.184Z,1004.54
2018-02-15T11:11:59.991Z,1004.52
2018-02-15T11:13:10.172Z,1004.49
2018-02-15T11:14:20.255Z,1004.5
2018-02-15T11:15:30.315Z,1004.5
2018-02-15T11:16:40.446Z,1004.5
2018-02-15T11:17:50.573Z,1004.46
2018-02-15T11:19:00.421Z,1004.44
2018-02-15T11:20:10.496Z,1004.47
2018-02-15T11:21:20.604Z,1004.42
2018-02-15T11:22:30.675Z,1004.43
2018-02-15T11:23:40.728Z,1004.4
2018-02-15T11:24:50.781Z,1004.37
2018-02-15T11:26:00.855Z,1004.34
2018-02-15T11:27:10.684Z,1004.35
2018-02-15T11:28:20.831Z,1004.36
2018-02-15T11:29:30.917Z,1004.4
2018-02-15T11:30:41.016Z,1004.4
2018-02-15T11:31:51.089Z,1004.4
2018-02-15T11:33:00.904Z,1004.36
2018-02-15T11:34:10.964Z,1004.4
2018-02-15T11:35:21.062Z,1004.39
2018-02-15T11:36:31.124Z,1004.34
2018-02-15T11:37:41.182Z,1004.32
2018-02-15T11:38:51.411Z,1004.32
2018-02-15T11:40:01.191Z,1004.26
2018-02-15T11:41:11.287Z,1004.22
2018-02-15T11:42:21.393Z,1004.26
2018-02-15T11:43:31.492Z,1004.26
2018-02-15T11:44:41.846Z,1004.3
2018-02-15T11:45:51.902Z,1004.29
2018-02-15T11:47:01.975Z,1004.27
2018-02-15T11:48:12.036Z,1004.26
2018-02-15T11:49:22.108Z,1004.3
2018-02-15T11:50:32.309Z,1004.28
2018-02-15T11:51:42.113Z,1004.28
2018-02-15T11:52:51.926Z,1004.32
2018-02-15T11:54:01.732Z,1004.29
2018-02-15T11:55:11.811Z,1004.27
2018-02-15T11:56:21.870Z,1004.25
2018-02-15T11:57:31.798Z,1004.3
2018-02-15T11:58:41.894Z,1004.26
2018-02-15T11:59:53.314Z,1004.26
2018-02-15T12:01:03.396Z,1004.21
2018-02-15T12:02:13.199Z,1004.26
2018-02-15T12:03:23.280Z,1004.24
2018-02-15T12:04:33.340Z,1004.23
2018-02-15T12:05:42.630Z,1004.21
2018-02-15T12:06:52.686Z,1004.24
2018-02-15T12:08:02.746Z,1004.19
2018-02-15T12:09:12.810Z,1004.2
2018-02-15T12:10:22.928Z,1004.22
2018-02-15T12:11:33.003Z,1004.19
2018-02-15T12:12:43.084Z,1004.22
2018-02-15T12:13:53.135Z,1004.21
2018-02-15T12:15:03.182Z,1004.17
2018-02-15T12:16:13.301Z,1004.13
2018-02-15T12:17:23.368Z,1004.12
2018-02-15T12:18:33.432Z,1004.1
2018-02-15T12:19:42.982Z,1004.11
2018-02-15T12:20:53.322Z,1004.09
2018-02-15T12:22:03.386Z,1004.12
2018-02-15T12:23:13.459Z,1004.11
2018-02-15T12:24:23.530Z,1004.1
2018-02-15T12:25:33.612Z,1004.04
2018-02-15T12:26:43.665Z,1004.06
2018-02-15T12:27:53.824Z,1004.04
2018-02-15T12:29:03.851Z,1004.05
2018-02-15T12:30:14.030Z,1004.04
2018-02-15T12:31:24.096Z,1004.04
2018-02-15T12:32:33.906Z,1004.02
2018-02-15T12:33:43.700Z,1004.07
2018-02-15T12:34:53.896Z,1004.04
2018-02-15T12:36:03.970Z,1003.99
2018-02-15T12:37:14.037Z,1003.98
2018-02-15T12:38:23.580Z,1003.98
2018-02-15T12:39:33.643Z,1003.95
2018-02-15T12:40:43.704Z,1003.92
2018-02-15T12:41:54.005Z,1003.89
2018-02-15T12:43:04.093Z,1003.91
2018-02-15T12:44:13.890Z,1003.9
2018-02-15T12:45:23.965Z,1003.92
2018-02-15T12:46:34.031Z,1003.87
2018-02-15T12:47:43.847Z,1003.84
2018-02-15T12:48:53.915Z,1003.88
2018-02-15T12:50:03.773Z,1003.87
2018-02-15T12:51:13.855Z,1003.86
2018-02-15T12:52:23.979Z,1003.85
2018-02-15T12:53:34.067Z,1003.85
2018-02-15T12:54:44.264Z,1003.87
2018-02-15T12:55:54.548Z,1003.87
2018-02-15T12:57:04.621Z,1003.89
2018-02-15T12:58:14.685Z,1003.85
2018-02-15T12:59:24.741Z,1003.88
2018-02-15T13:00:34.826Z,1003.87
2018-02-15T13:01:47.705Z,1003.89
2018-02-15T13:02:57.873Z,1003.92
2018-02-15T13:04:07.786Z,1003.89
2018-02-15T13:05:18.645Z,1003.91
2018-02-15T13:06:28.695Z,1003.92
2018-02-15T13:07:38.791Z,1003.89
2018-02-15T13:08:48.860Z,1003.93
2018-02-15T13:09:58.931Z,1003.93
2018-02-15T13:11:09.010Z,1003.88
2018-02-15T13:12:18.814Z,1003.89
2018-02-15T13:13:28.612Z,1003.84
2018-02-15T13:14:38.718Z,1003.8
2018-02-15T13:15:48.792Z,1003.84
2018-02-15T13:16:59.434Z,1003.8
2018-02-15T13:18:09.248Z,1003.78
2018-02-15T13:19:19.053Z,1003.8
2018-02-15T13:20:29.153Z,1003.78
2018-02-15T13:21:39.275Z,1003.76
2018-02-15T13:22:49.085Z,1003.77
2018-02-15T13:23:59.172Z,1003.77
2018-02-15T13:25:09.238Z,1003.76
2018-02-15T13:26:19.305Z,1003.81
2018-02-15T13:27:29.081Z,1003.81
2018-02-15T13:28:39.159Z,1003.83
2018-02-15T13:29:49.226Z,1003.86
2018-02-15T13:30:59.026Z,1003.85
2018-02-15T13:32:09.107Z,1003.81
2018-02-15T13:33:19.241Z,1003.85
2018-02-15T13:34:29.309Z,1003.83
2018-02-15T13:35:39.379Z,1003.86
2018-02-15T13:36:49.437Z,1003.86
2018-02-15T13:37:58.966Z,1003.84
2018-02-15T13:39:09.058Z,1003.87
2018-02-15T13:40:19.174Z,1003.9
2018-02-15T13:41:29.255Z,1003.92
2018-02-15T13:42:39.333Z,1003.86
2018-02-15T13:43:49.409Z,1003.89
2018-02-15T13:44:59.271Z,1003.81
2018-02-15T13:46:09.322Z,1003.82
2018-02-15T13:47:19.120Z,1003.84
2018-02-15T13:48:29.191Z,1003.84
2018-02-15T13:49:39.269Z,1003.83
2018-02-15T13:50:49.410Z,1003.83
2018-02-15T13:51:59.468Z,1003.84
2018-02-15T13:53:09.289Z,1003.8
2018-02-15T13:54:19.368Z,1003.74
2018-02-15T13:55:29.446Z,1003.74
2018-02-15T13:56:39.565Z,1003.72
2018-02-15T13:57:49.093Z,1003.76
2018-02-15T13:58:59.163Z,1003.73
2018-02-15T14:00:09.245Z,1003.8
2018-02-15T14:01:19.309Z,1003.72
2018-02-15T14:02:29.178Z,1003.67
2018-02-15T14:03:39.261Z,1003.68
2018-02-15T14:04:49.347Z,1003.69
2018-02-15T14:05:59.192Z,1003.7
2018-02-15T14:07:09.280Z,1003.68
2018-02-15T14:08:19.078Z,1003.7
2018-02-15T14:09:29.153Z,1003.73
2018-02-15T14:10:39.225Z,1003.7
2018-02-15T14:11:49.280Z,1003.7
2018-02-15T14:12:59.377Z,1003.65
2018-02-15T14:14:09.488Z,1003.64
2018-02-15T14:15:19.543Z,1003.62
2018-02-15T14:16:30.111Z,1003.62
2018-02-15T14:17:40.165Z,1003.56
2018-02-15T14:18:50.224Z,1003.56
2018-02-15T14:20:00.281Z,1003.53
2018-02-15T14:21:10.333Z,1003.6
2018-02-15T14:22:20.177Z,1003.61
2018-02-15T14:23:30.231Z,1003.62
2018-02-15T14:24:39.801Z,1003.63
2018-02-15T14:25:49.923Z,1003.62
2018-02-15T14:26:59.977Z,1003.62
2018-02-15T14:28:09.823Z,1003.58
2018-02-15T14:29:19.627Z,1003.56
2018-02-15T14:30:29.681Z,1003.59
2018-02-15T14:31:39.283Z,1003.62
2018-02-15T14:32:49.360Z,1003.63
2018-02-15T14:33:59.422Z,1003.68
2018-02-15T14:35:09.222Z,1003.66
2018-02-15T14:36:19.296Z,1003.66
2018-02-15T14:37:29.364Z,1003.64
2018-02-15T14:38:39.426Z,1003.6
2018-02-15T14:39:49.223Z,1003.61
2018-02-15T14:40:59.280Z,1003.59